createdAt,value
2018-09-15T00:00:41.815Z,8.70
2018-09-15T00:03:11.021Z,8.37
2018-09-15T00:05:40.129Z,9.20
2018-09-15T00:08:09.424Z,9.27
2018-09-15T00:10:38.509Z,8.80
2018-09-15T00:13:07.775Z,6.23
2018-09-15T00:15:36.917Z,5.47
2018-09-15T00:18:10.139Z,5.80
2018-09-15T00:20:39.397Z,5.80
2018-09-15T00:23:09.361Z,10.13
2018-09-15T00:25:38.833Z,9.80
2018-09-15T00:28:08.040Z,6.20
2018-09-15T00:30:37.331Z,6.17
2018-09-15T00:33:06.559Z,6.67
2018-09-15T00:35:35.849Z,5.97
2018-09-15T00:38:05.529Z,11.00
2018-09-15T00:40:34.745Z,8.13
2018-09-15T00:43:04.504Z,8.50
2018-09-15T00:45:34.057Z,8.27
2018-09-15T00:48:03.651Z,8.67
2018-09-15T00:50:32.860Z,8.83
2018-09-15T00:53:02.970Z,9.03
2018-09-15T00:55:32.162Z,9.37
2018-09-15T00:58:01.203Z,9.03
2018-09-15T01:00:31.402Z,8.30
2018-09-15T01:03:01.012Z,7.77
2018-09-15T01:05:30.886Z,7.60
2018-09-15T01:08:13.674Z,7.40
2018-09-15T01:10:42.834Z,6.83
2018-09-15T01:13:12.006Z,7.07
2018-09-15T01:15:41.281Z,7.00
2018-09-15T01:18:10.753Z,7.53
2018-09-15T01:20:40.097Z,7.70
2018-09-15T01:23:09.208Z,8.63
2018-09-15T01:25:38.397Z,9.20
2018-09-15T01:28:07.604Z,9.50
2018-09-15T01:30:36.810Z,10.53
2018-09-15T01:33:06.670Z,14.17
2018-09-15T01:35:35.951Z,9.33
2018-09-15T01:38:05.714Z,8.80
2018-09-15T01:40:35.025Z,9.53
2018-09-15T01:43:04.797Z,8.53
2018-09-15T01:45:35.219Z,11.63
2018-09-15T01:48:05.162Z,10.33
2018-09-15T01:50:34.335Z,11.43
2018-09-15T01:53:04.502Z,13.57
2018-09-15T01:55:33.589Z,13.17
2018-09-15T01:58:03.193Z,13.97
2018-09-15T02:00:32.270Z,12.70
2018-09-15T02:03:01.379Z,12.63
2018-09-15T02:05:30.586Z,12.90
2018-09-15T02:07:59.677Z,13.23
2018-09-15T02:10:30.631Z,12.10
2018-09-15T02:12:59.942Z,12.50
2018-09-15T02:15:29.147Z,13.53
2018-09-15T02:17:58.390Z,12.17
2018-09-15T02:20:29.585Z,9.90
2018-09-15T02:22:59.595Z,10.03
2018-09-15T02:25:29.166Z,9.73
2018-09-15T02:27:58.502Z,10.27
2018-09-15T02:30:30.209Z,10.20
2018-09-15T02:32:59.558Z,8.73
2018-09-15T02:35:29.762Z,9.10
2018-09-15T02:37:58.943Z,9.10
2018-09-15T02:40:31.253Z,9.50
2018-09-15T02:43:00.915Z,10.20
2018-09-15T02:45:30.271Z,8.90
2018-09-15T02:48:00.760Z,8.53
2018-09-15T02:50:36.238Z,8.73
2018-09-15T02:53:06.106Z,9.40
2018-09-15T02:55:35.215Z,10.20
2018-09-15T02:58:04.593Z,10.07
2018-09-15T03:00:33.967Z,10.10
2018-09-15T03:03:03.626Z,9.90
2018-09-15T03:05:32.784Z,10.70
2018-09-15T03:08:01.959Z,14.93
2018-09-15T03:10:31.112Z,18.27
2018-09-15T03:13:00.352Z,18.97
2018-09-15T03:15:29.513Z,16.77
2018-09-15T03:17:58.749Z,14.40
2018-09-15T03:20:29.841Z,14.27
2018-09-15T03:22:58.903Z,12.50
2018-09-15T03:25:29.356Z,12.80
2018-09-15T03:27:58.647Z,12.87
2018-09-15T03:30:29.853Z,13.43
2018-09-15T03:32:59.037Z,14.63
2018-09-15T03:35:29.666Z,15.30
2018-09-15T03:37:58.767Z,14.87
2018-09-15T03:40:30.178Z,13.93
2018-09-15T03:43:06.914Z,16.73
2018-09-15T03:45:35.968Z,16.30
2018-09-15T03:48:05.490Z,16.70
2018-09-15T03:50:34.780Z,18.10
2018-09-15T03:53:04.205Z,16.33
2018-09-15T03:55:34.078Z,15.37
2018-09-15T03:58:03.745Z,16.80
2018-09-15T04:00:32.926Z,16.53
2018-09-15T04:03:02.454Z,17.10
2018-09-15T04:05:31.805Z,16.53
2018-09-15T04:08:01.284Z,16.37
2018-09-15T04:10:30.438Z,16.10
2018-09-15T04:12:59.649Z,17.43
2018-09-15T04:15:29.207Z,16.27
2018-09-15T04:20:51.356Z,14.53
2018-09-15T04:23:20.683Z,15.37
2018-09-15T04:25:49.757Z,13.57
2018-09-15T04:28:18.833Z,13.20
2018-09-15T04:30:47.812Z,13.23
2018-09-15T04:33:17.019Z,12.33
2018-09-15T04:35:46.226Z,15.70
2018-09-15T04:38:15.371Z,15.43
2018-09-15T04:40:44.719Z,13.60
2018-09-15T04:43:13.967Z,13.87
2018-09-15T04:45:43.137Z,19.40
2018-09-15T04:48:12.792Z,14.90
2018-09-15T04:50:42.046Z,12.17
2018-09-15T04:53:11.181Z,15.47
2018-09-15T04:55:40.295Z,17.93
2018-09-15T04:58:09.488Z,19.97
2018-09-15T05:00:38.709Z,17.77
2018-09-15T05:03:07.981Z,18.20
2018-09-15T05:05:37.081Z,15.70
2018-09-15T05:08:06.591Z,14.03
2018-09-15T05:10:35.706Z,12.07
2018-09-15T05:13:05.230Z,11.87
2018-09-15T05:15:34.217Z,12.80
2018-09-15T05:18:03.551Z,11.87
2018-09-15T05:20:32.643Z,10.57
2018-09-15T05:23:01.617Z,10.03
2018-09-15T05:25:30.845Z,9.43
2018-09-15T05:27:59.927Z,9.17
2018-09-15T05:30:31.570Z,9.13
2018-09-15T05:33:00.713Z,9.73
2018-09-15T05:35:29.698Z,9.50
2018-09-15T05:37:58.686Z,7.97
2018-09-15T05:40:30.994Z,7.87
2018-09-15T05:43:00.139Z,7.50
2018-09-15T05:45:29.835Z,7.03
2018-09-15T05:47:58.965Z,5.90
2018-09-15T05:50:30.109Z,6.17
2018-09-15T05:52:59.401Z,6.37
2018-09-15T05:55:31.260Z,5.50
2018-09-15T05:58:00.313Z,5.57
2018-09-15T06:00:30.904Z,5.90
2018-09-15T06:02:59.928Z,5.23
2018-09-15T06:05:29.944Z,5.73
2018-09-15T06:07:58.998Z,5.17
2018-09-15T06:10:31.274Z,5.23
2018-09-15T06:13:00.304Z,5.47
2018-09-15T06:15:30.851Z,5.37
2018-09-15T06:17:59.909Z,5.57
2018-09-15T06:20:31.041Z,4.80
2018-09-15T06:23:00.153Z,5.37
2018-09-15T06:25:30.669Z,5.20
2018-09-15T06:27:59.700Z,5.50
2018-09-15T06:30:30.915Z,5.07
2018-09-15T06:33:00.010Z,5.07
2018-09-15T06:35:31.046Z,5.27
2018-09-15T06:38:00.245Z,4.47
2018-09-15T06:40:30.785Z,5.57
2018-09-15T06:42:59.971Z,5.00
2018-09-15T06:45:32.367Z,5.30
2018-09-15T06:48:01.784Z,4.33
2018-09-15T06:50:31.524Z,4.30
2018-09-15T06:53:00.572Z,4.33
2018-09-15T06:55:32.521Z,5.10
2018-09-15T06:58:01.521Z,5.70
2018-09-15T07:00:34.366Z,5.10
2018-09-15T07:03:04.711Z,4.97
2018-09-15T07:05:36.434Z,5.13
2018-09-15T07:08:07.527Z,4.93
2018-09-15T07:10:38.321Z,5.57
2018-09-15T07:13:07.679Z,5.40
2018-09-15T07:15:36.846Z,5.10
2018-09-15T07:18:06.591Z,5.47
2018-09-15T07:20:37.562Z,4.97
2018-09-15T07:23:08.147Z,4.60
2018-09-15T07:25:37.329Z,4.87
2018-09-15T07:28:07.800Z,4.50
2018-09-15T07:30:36.873Z,4.27
2018-09-15T07:33:06.428Z,4.80
2018-09-15T07:35:35.577Z,4.70
2018-09-15T07:38:05.014Z,5.50
2018-09-15T07:40:34.027Z,4.50
2018-09-15T07:43:04.145Z,4.40
2018-09-15T07:45:33.465Z,5.00
2018-09-15T07:48:02.813Z,4.77
2018-09-15T07:50:32.010Z,4.77
2018-09-15T07:53:01.500Z,4.20
2018-09-15T07:55:33.609Z,4.50
2018-09-15T07:58:04.005Z,4.50
2018-09-15T08:00:33.283Z,4.70
2018-09-15T08:12:11.256Z,4.03
2018-09-15T08:14:40.472Z,4.03
2018-09-15T08:17:09.601Z,3.30
2018-09-15T08:19:38.775Z,3.70
2018-09-15T08:22:08.309Z,4.00
2018-09-15T08:24:37.546Z,3.70
2018-09-15T08:27:07.476Z,3.80
2018-09-15T08:29:36.625Z,3.87
2018-09-15T08:32:06.497Z,4.23
2018-09-15T08:34:35.604Z,3.57
2018-09-15T08:37:05.042Z,3.93
2018-09-15T08:39:34.251Z,3.87
2018-09-15T08:42:03.457Z,3.50
2018-09-15T08:44:32.770Z,3.23
2018-09-15T08:47:01.941Z,3.43
2018-09-15T08:49:30.973Z,3.30
2018-09-15T08:52:00.013Z,3.40
2018-09-15T08:54:29.038Z,3.40
2018-09-15T08:56:58.103Z,3.50
2018-09-15T08:59:27.555Z,3.60
2018-09-15T09:01:56.549Z,2.97
2018-09-15T09:04:25.694Z,3.60
2018-09-15T09:06:54.801Z,3.50
2018-09-15T09:09:23.797Z,3.43
2018-09-15T09:11:52.836Z,2.97
2018-09-15T09:14:21.985Z,3.33
2018-09-15T09:16:50.973Z,3.23
2018-09-15T09:27:55.522Z,3.00
2018-09-15T09:30:24.549Z,3.00
2018-09-15T09:32:53.697Z,3.03
2018-09-15T09:35:22.878Z,3.07
2018-09-15T09:37:52.041Z,2.60
2018-09-15T09:40:22.130Z,3.00
2018-09-15T09:42:51.375Z,2.90
2018-09-15T09:45:21.937Z,2.30
2018-09-15T09:47:50.980Z,2.33
2018-09-15T09:50:22.294Z,2.80
2018-09-15T09:52:51.317Z,3.00
2018-09-15T09:55:21.169Z,2.50
2018-09-15T09:57:50.351Z,2.70
2018-09-15T10:00:27.002Z,2.50
2018-09-15T10:02:56.047Z,2.60
2018-09-15T10:05:25.349Z,2.80
2018-09-15T10:07:54.390Z,2.77
2018-09-15T10:10:23.531Z,2.10
2018-09-15T10:12:52.625Z,2.53
2018-09-15T10:15:22.015Z,2.40
2018-09-15T10:17:51.046Z,2.60
2018-09-15T10:20:22.672Z,2.70
2018-09-15T10:22:51.778Z,3.00
2018-09-15T10:25:21.380Z,2.77
2018-09-15T10:27:50.493Z,2.43
2018-09-15T10:30:22.110Z,2.50
2018-09-15T10:32:51.147Z,2.67
2018-09-15T10:35:22.180Z,2.43
2018-09-15T10:37:51.265Z,2.27
2018-09-15T10:40:22.781Z,2.50
2018-09-15T10:42:51.912Z,2.20
2018-09-15T10:45:21.223Z,2.20
2018-09-15T10:47:50.511Z,2.60
2018-09-15T10:50:22.926Z,2.33
2018-09-15T10:52:52.069Z,2.17
2018-09-15T10:55:21.194Z,2.40
2018-09-15T10:57:50.343Z,2.60
2018-09-15T11:00:23.574Z,2.20
2018-09-15T11:02:52.606Z,2.07
2018-09-15T11:05:23.083Z,2.17
2018-09-15T11:07:52.209Z,2.00
2018-09-15T11:10:22.320Z,2.27
2018-09-15T11:12:51.389Z,2.53
2018-09-15T11:15:22.100Z,2.10
2018-09-15T11:17:51.457Z,2.27
2018-09-15T11:20:22.600Z,2.40
2018-09-15T11:22:51.819Z,2.27
2018-09-15T11:25:21.588Z,2.70
2018-09-15T11:27:50.754Z,2.27
2018-09-15T11:30:22.405Z,2.83
2018-09-15T11:32:51.652Z,2.60
2018-09-15T11:35:22.603Z,2.60
2018-09-15T11:37:51.686Z,2.40
2018-09-15T11:40:22.141Z,2.40
2018-09-15T11:42:51.414Z,3.00
2018-09-15T11:45:22.449Z,3.40
2018-09-15T11:47:51.714Z,2.73
2018-09-15T11:50:22.670Z,2.77
2018-09-15T11:52:52.087Z,3.20
2018-09-15T11:55:22.050Z,3.07
2018-09-15T11:57:51.160Z,3.13
2018-09-15T12:00:25.185Z,2.80
2018-09-15T12:02:54.442Z,3.10
2018-09-15T12:05:24.666Z,2.80
2018-09-15T12:07:53.783Z,2.90
2018-09-15T12:10:22.852Z,3.10
2018-09-15T12:12:51.966Z,2.90
2018-09-15T12:15:22.006Z,2.87
2018-09-15T12:17:51.465Z,3.20
2018-09-15T12:20:22.850Z,2.77
2018-09-15T12:22:52.103Z,3.20
2018-09-15T12:25:21.459Z,2.90
2018-09-15T12:27:50.889Z,2.80
2018-09-15T12:30:22.665Z,3.00
2018-09-15T12:32:51.786Z,2.90
2018-09-15T12:35:21.645Z,3.17
2018-09-15T12:37:50.879Z,2.97
2018-09-15T12:40:22.409Z,3.20
2018-09-15T12:42:51.624Z,2.70
2018-09-15T12:45:22.548Z,3.27
2018-09-15T12:47:51.599Z,3.73
2018-09-15T12:50:23.103Z,3.40
2018-09-15T12:52:52.228Z,3.10
2018-09-15T12:55:21.388Z,3.40
2018-09-15T12:57:50.822Z,3.30
2018-09-15T13:00:22.269Z,2.97
2018-09-15T13:02:51.423Z,3.03
2018-09-15T13:05:21.483Z,3.03
2018-09-15T13:07:50.525Z,3.10
2018-09-15T13:10:21.785Z,3.33
2018-09-15T13:12:50.728Z,3.23
2018-09-15T13:15:22.546Z,3.10
2018-09-15T13:17:51.652Z,2.80
2018-09-15T13:28:58.505Z,3.03
2018-09-15T13:31:27.605Z,3.00
2018-09-15T13:33:57.007Z,2.70
2018-09-15T13:36:26.166Z,3.00
2018-09-15T13:38:55.220Z,3.20
2018-09-15T13:41:25.237Z,3.00
2018-09-15T13:43:54.373Z,3.00
2018-09-15T13:46:23.582Z,2.87
2018-09-15T13:48:52.898Z,3.10
2018-09-15T13:51:22.007Z,2.70
2018-09-15T13:53:51.212Z,3.20
2018-09-15T13:56:20.372Z,3.20
2018-09-15T13:58:49.530Z,2.87
2018-09-15T14:01:18.638Z,2.47
2018-09-15T14:03:47.660Z,2.90
2018-09-15T14:06:16.935Z,3.20
2018-09-15T14:08:46.023Z,3.20
2018-09-15T14:11:15.069Z,3.20
2018-09-15T14:13:44.072Z,3.20
2018-09-15T14:16:13.193Z,3.00
2018-09-15T14:18:42.821Z,3.17
2018-09-15T14:21:12.173Z,3.57
2018-09-15T14:23:41.284Z,3.20
2018-09-15T14:26:10.330Z,3.50
2018-09-15T14:28:40.514Z,3.60
2018-09-15T14:31:09.716Z,3.83
2018-09-15T14:33:38.700Z,3.77
2018-09-15T14:36:07.883Z,3.20
2018-09-15T14:38:37.100Z,3.50
2018-09-15T14:41:06.198Z,3.37
2018-09-15T14:43:35.262Z,4.20
2018-09-15T14:46:04.333Z,3.87
2018-09-15T14:48:33.605Z,3.43
2018-09-15T14:51:02.735Z,3.30
2018-09-15T14:53:31.849Z,4.10
2018-09-15T14:56:00.836Z,4.87
2018-09-15T14:58:29.939Z,2.87
2018-09-15T15:00:59.090Z,3.53
2018-09-15T15:03:28.231Z,4.53
2018-09-15T15:05:57.325Z,3.83
2018-09-15T15:08:26.450Z,3.40
2018-09-15T15:10:55.862Z,3.20
2018-09-15T15:13:24.912Z,3.20
2018-09-15T15:15:54.178Z,3.37
2018-09-15T15:18:23.338Z,3.10
2018-09-15T15:20:52.422Z,2.93
2018-09-15T15:23:21.600Z,2.43
2018-09-15T15:25:50.769Z,3.03
2018-09-15T15:28:21.457Z,3.13
2018-09-15T15:30:50.659Z,2.37
2018-09-15T15:33:20.830Z,2.80
2018-09-15T15:35:49.909Z,2.80
2018-09-15T15:38:18.975Z,2.93
2018-09-15T15:40:48.071Z,3.10
2018-09-15T15:43:17.060Z,4.40
2018-09-15T15:45:46.304Z,3.40
2018-09-15T15:48:15.360Z,3.00
2018-09-15T15:50:44.432Z,3.10
2018-09-15T15:53:13.562Z,3.20
2018-09-15T15:55:43.409Z,2.97
2018-09-15T15:58:13.066Z,2.90
2018-09-15T16:00:42.807Z,2.70
2018-09-15T16:03:13.447Z,2.90
2018-09-15T16:05:44.339Z,3.30
2018-09-15T16:08:14.045Z,2.73
2018-09-15T16:10:43.674Z,3.07
2018-09-15T16:13:12.794Z,3.00
2018-09-15T16:15:43.264Z,2.93
2018-09-15T16:18:12.672Z,2.90
2018-09-15T16:20:42.389Z,3.03
2018-09-15T16:23:13.114Z,2.70
2018-09-15T16:25:42.688Z,2.87
2018-09-15T16:37:31.286Z,4.70
2018-09-15T16:40:00.753Z,5.10
2018-09-15T16:42:31.233Z,5.80
2018-09-15T16:45:00.517Z,5.47
2018-09-15T16:47:30.492Z,6.20
2018-09-15T16:49:59.714Z,6.07
2018-09-15T16:52:31.586Z,5.77
2018-09-15T16:55:02.145Z,5.67
2018-09-15T16:57:31.366Z,5.67
2018-09-15T17:00:00.635Z,6.50
2018-09-15T17:02:31.512Z,5.70
2018-09-15T17:05:01.601Z,7.00
2018-09-15T17:07:30.734Z,6.27
2018-09-15T17:10:02.467Z,6.20
2018-09-15T17:12:31.645Z,7.40
2018-09-15T17:15:00.720Z,7.00
2018-09-15T17:17:30.393Z,6.97
2018-09-15T17:19:59.671Z,6.40
2018-09-15T17:22:28.821Z,6.53
2018-09-15T17:30:43.756Z,7.13
2018-09-15T17:33:12.832Z,7.20
2018-09-15T17:35:42.994Z,7.73
2018-09-15T17:38:12.158Z,6.83
2018-09-15T17:40:41.595Z,7.30
2018-09-15T17:43:10.817Z,7.10
2018-09-15T17:45:42.392Z,7.87
2018-09-15T17:48:12.423Z,7.40
2018-09-15T17:50:42.955Z,7.43
2018-09-15T17:53:13.520Z,6.43
2018-09-15T17:55:46.377Z,7.90
2018-09-15T17:58:15.345Z,7.20
2018-09-15T18:00:44.512Z,7.57
2018-09-15T18:03:13.594Z,7.03
2018-09-15T18:05:43.122Z,7.33
2018-09-15T18:08:12.202Z,6.97
2018-09-15T18:10:41.796Z,7.43
2018-09-15T18:13:10.837Z,7.03
2018-09-15T18:15:39.938Z,7.30
2018-09-15T18:18:09.120Z,7.13
2018-09-15T18:20:38.188Z,7.37
2018-09-15T18:23:08.503Z,6.80
2018-09-15T18:35:04.565Z,6.67
2018-09-15T18:37:33.917Z,7.47
2018-09-15T18:40:03.051Z,7.00
2018-09-15T18:42:40.711Z,7.60
2018-09-15T18:45:33.310Z,7.10
2018-09-15T18:48:02.385Z,7.33
2018-09-15T18:50:31.692Z,7.53
2018-09-15T18:53:02.843Z,7.77
2018-09-15T18:55:32.016Z,7.43
2018-09-15T18:58:01.139Z,9.80
2018-09-15T19:00:30.255Z,8.50
2018-09-15T19:02:59.307Z,8.37
2018-09-15T19:05:28.485Z,8.20
2018-09-15T19:07:57.595Z,8.03
2018-09-15T19:10:26.689Z,7.37
2018-09-15T19:12:55.839Z,7.33
2018-09-15T19:15:24.886Z,7.47
2018-09-15T19:17:53.975Z,7.57
2018-09-15T19:20:23.096Z,7.90
2018-09-15T19:22:52.195Z,10.43
2018-09-15T19:25:22.123Z,8.73
2018-09-15T19:27:51.395Z,8.73
2018-09-15T19:30:21.278Z,7.90
2018-09-15T19:32:50.585Z,7.30
2018-09-15T19:35:20.373Z,8.53
2018-09-15T19:37:49.627Z,7.60
2018-09-15T19:40:20.200Z,8.37
2018-09-15T19:42:49.389Z,9.43
2018-09-15T19:45:19.428Z,8.63
2018-09-15T19:47:48.564Z,8.67
2018-09-15T19:50:20.477Z,8.43
2018-09-15T19:52:49.800Z,8.90
2018-09-15T19:55:20.148Z,9.07
2018-09-15T19:57:49.886Z,8.57
2018-09-15T20:00:19.392Z,9.83
2018-09-15T20:02:50.109Z,9.60
2018-09-15T20:05:20.461Z,9.27
2018-09-15T20:07:49.532Z,9.40
2018-09-15T20:10:21.578Z,9.70
2018-09-15T20:12:50.823Z,9.80
2018-09-15T20:15:30.083Z,9.77
2018-09-15T20:17:58.456Z,9.40
2018-09-15T20:20:26.047Z,9.70
2018-09-15T20:22:56.086Z,9.87
2018-09-15T20:25:25.294Z,10.00
2018-09-15T20:27:54.619Z,9.90
2018-09-15T20:30:23.951Z,9.70
2018-09-15T20:32:53.281Z,9.50
2018-09-15T20:35:22.406Z,9.43
2018-09-15T20:37:51.489Z,9.73
2018-09-15T20:40:21.329Z,9.30
2018-09-15T20:42:50.683Z,10.53
2018-09-15T20:45:20.075Z,9.30
2018-09-15T20:47:49.228Z,10.17
2018-09-15T20:50:19.646Z,10.30
2018-09-15T20:52:48.809Z,10.53
2018-09-15T20:55:18.619Z,9.70
2018-09-15T20:57:47.752Z,10.47
2018-09-15T21:00:20.532Z,10.30
2018-09-15T21:02:49.603Z,10.80
2018-09-15T21:05:19.035Z,11.13
2018-09-15T21:07:48.137Z,11.27
2018-09-15T21:10:19.688Z,10.83
2018-09-15T21:12:49.903Z,10.80
2018-09-15T21:15:19.922Z,11.67
2018-09-15T21:17:49.126Z,10.90
2018-09-15T21:20:19.498Z,11.07
2018-09-15T21:22:48.706Z,10.93
2018-09-15T21:25:19.135Z,10.50
2018-09-15T21:27:48.292Z,10.77
2018-09-15T21:30:19.666Z,10.83
2018-09-15T21:32:48.945Z,11.50
2018-09-15T21:35:19.292Z,11.40
2018-09-15T21:37:48.437Z,11.57
2018-09-15T21:40:19.202Z,11.80
2018-09-15T21:42:48.400Z,12.13
2018-09-15T21:45:18.556Z,11.77
2018-09-15T21:47:47.792Z,12.53
2018-09-15T21:50:19.313Z,13.10
2018-09-15T21:52:48.610Z,12.13
2018-09-15T21:55:23.186Z,12.57
2018-09-15T21:57:52.416Z,12.57
2018-09-15T22:00:21.608Z,12.50
2018-09-15T22:02:50.787Z,12.27
2018-09-15T22:05:20.066Z,12.70
2018-09-15T22:07:49.146Z,14.83
2018-09-15T22:10:20.251Z,12.73
2018-09-15T22:12:49.293Z,12.37
2018-09-15T22:15:24.907Z,13.87
2018-09-15T22:17:55.500Z,12.57
2018-09-15T22:20:24.813Z,12.50
2018-09-15T22:22:54.093Z,12.77
2018-09-15T22:25:23.182Z,13.93
2018-09-15T22:27:52.861Z,13.50
2018-09-15T22:30:22.117Z,13.17
2018-09-15T22:32:51.221Z,12.20
2018-09-15T22:35:20.881Z,12.23
2018-09-15T22:37:50.546Z,13.27
2018-09-15T22:40:19.830Z,13.67
2018-09-15T22:42:49.108Z,14.40
2018-09-15T22:45:18.776Z,14.80
2018-09-15T22:47:47.907Z,14.57
2018-09-15T22:50:18.961Z,15.57
2018-09-15T22:52:48.500Z,12.73
2018-09-15T22:55:21.738Z,14.17
2018-09-15T22:57:51.009Z,14.77
2018-09-15T23:00:20.389Z,15.27
2018-09-15T23:02:50.214Z,15.10
2018-09-15T23:05:19.506Z,17.67
2018-09-15T23:07:48.700Z,14.03
2018-09-15T23:10:19.552Z,15.67
2018-09-15T23:12:48.751Z,14.87
2018-09-15T23:15:19.174Z,13.60
2018-09-15T23:17:48.379Z,14.23
2018-09-15T23:20:19.180Z,15.07
2018-09-15T23:22:48.285Z,15.90
2018-09-15T23:25:18.778Z,16.97
2018-09-15T23:27:47.953Z,16.90
2018-09-15T23:30:19.097Z,20.10
2018-09-15T23:32:58.565Z,20.67
2018-09-15T23:35:27.791Z,20.07
2018-09-15T23:37:57.116Z,19.10
2018-09-15T23:40:26.543Z,20.77
2018-09-15T23:42:55.883Z,19.13
2018-09-15T23:45:25.052Z,19.63
2018-09-15T23:47:54.329Z,19.73
2018-09-15T23:50:23.519Z,19.43
2018-09-15T23:52:52.785Z,18.57
2018-09-15T23:55:22.214Z,19.60
2018-09-15T23:57:51.442Z,18.90
